sensor_id;sensor_type;location;lat;lon;timestamp;P1;durP1;ratioP1;P2;durP2;ratioP2
28160;SDS011;15448;51.956;7.670;2022-08-04T00:02:23;16.07;;;15.00;;
28160;SDS011;15448;51.956;7.670;2022-08-04T00:04:53;15.53;;;14.70;;
28160;SDS011;15448;51.956;7.670;2022-08-04T00:10:11;16.13;;;14.93;;
28160;SDS011;15448;51.956;7.670;2022-08-04T00:12:42;14.63;;;13.70;;
28160;SDS011;15448;51.956;7.670;2022-08-04T00:15:13;14.27;;;13.57;;
28160;SDS011;15448;51.956;7.670;2022-08-04T00:17:41;14.80;;;14.10;;
28160;SDS011;15448;51.956;7.670;2022-08-04T00:20:11;15.37;;;14.47;;
28160;SDS011;15448;51.956;7.670;2022-08-04T00:22:44;15.70;;;14.83;;
28160;SDS011;15448;51.956;7.670;2022-08-04T00:25:11;15.17;;;14.47;;
28160;SDS011;15448;51.956;7.670;2022-08-04T00:27:36;15.43;;;14.17;;
28160;SDS011;15448;51.956;7.670;2022-08-04T00:30:03;14.73;;;14.00;;
28160;SDS011;15448;51.956;7.670;2022-08-04T00:32:30;15.47;;;14.70;;
28160;SDS011;15448;51.956;7.670;2022-08-04T00:34:56;15.23;;;14.30;;
28160;SDS011;15448;51.956;7.670;2022-08-04T00:37:24;15.13;;;14.33;;
28160;SDS011;15448;51.956;7.670;2022-08-04T00:39:51;15.90;;;14.90;;
28160;SDS011;15448;51.956;7.670;2022-08-04T00:42:41;16.27;;;15.40;;
28160;SDS011;15448;51.956;7.670;2022-08-04T00:45:24;15.00;;;14.40;;
28160;SDS011;15448;51.956;7.670;2022-08-04T00:51:05;15.00;;;14.40;;
28160;SDS011;15448;51.956;7.670;2022-08-04T00:53:54;15.47;;;14.27;;
28160;SDS011;15448;51.956;7.670;2022-08-04T00:56:43;15.20;;;14.40;;
28160;SDS011;15448;51.956;7.670;2022-08-04T00:59:43;14.80;;;14.20;;
28160;SDS011;15448;51.956;7.670;2022-08-04T01:16:05;15.83;;;14.20;;
28160;SDS011;15448;51.956;7.670;2022-08-04T01:18:38;15.07;;;14.27;;
28160;SDS011;15448;51.956;7.670;2022-08-04T01:21:35;15.20;;;14.30;;
28160;SDS011;15448;51.956;7.670;2022-08-04T01:24:13;15.17;;;14.40;;
28160;SDS011;15448;51.956;7.670;2022-08-04T01:27:05;16.23;;;14.97;;
28160;SDS011;15448;51.956;7.670;2022-08-04T01:40:36;15.07;;;14.23;;
28160;SDS011;15448;51.956;7.670;2022-08-04T01:43:02;14.93;;;14.23;;
28160;SDS011;15448;51.956;7.670;2022-08-04T01:45:28;15.07;;;14.23;;
28160;SDS011;15448;51.956;7.670;2022-08-04T01:47:54;14.27;;;13.73;;
28160;SDS011;15448;51.956;7.670;2022-08-04T01:50:21;15.50;;;14.70;;
28160;SDS011;15448;51.956;7.670;2022-08-04T01:52:47;15.43;;;14.10;;
28160;SDS011;15448;51.956;7.670;2022-08-04T01:55:16;15.23;;;14.33;;
28160;SDS011;15448;51.956;7.670;2022-08-04T01:57:51;15.47;;;14.20;;
28160;SDS011;15448;51.956;7.670;2022-08-04T02:00:21;15.10;;;14.30;;
28160;SDS011;15448;51.956;7.670;2022-08-04T02:02:48;15.10;;;14.10;;
28160;SDS011;15448;51.956;7.670;2022-08-04T02:05:15;15.13;;;14.13;;
28160;SDS011;15448;51.956;7.670;2022-08-04T02:21:34;16.40;;;15.60;;
28160;SDS011;15448;51.956;7.670;2022-08-04T02:24:04;15.67;;;14.77;;
28160;SDS011;15448;51.956;7.670;2022-08-04T02:26:31;15.60;;;14.70;;
28160;SDS011;15448;51.956;7.670;2022-08-04T02:31:51;16.17;;;14.77;;
28160;SDS011;15448;51.956;7.670;2022-08-04T02:34:28;15.33;;;14.43;;
28160;SDS011;15448;51.956;7.670;2022-08-04T02:37:02;15.67;;;14.60;;
28160;SDS011;15448;51.956;7.670;2022-08-04T02:39:30;16.27;;;14.97;;
28160;SDS011;15448;51.956;7.670;2022-08-04T02:41:58;15.60;;;14.73;;
28160;SDS011;15448;51.956;7.670;2022-08-04T02:44:26;15.40;;;14.33;;
28160;SDS011;15448;51.956;7.670;2022-08-04T02:46:53;16.23;;;14.93;;
28160;SDS011;15448;51.956;7.670;2022-08-04T02:49:22;15.50;;;14.50;;
28160;SDS011;15448;51.956;7.670;2022-08-04T02:51:51;15.83;;;14.63;;
28160;SDS011;15448;51.956;7.670;2022-08-04T02:54:34;16.10;;;15.10;;
28160;SDS011;15448;51.956;7.670;2022-08-04T02:57:13;17.53;;;15.87;;
28160;SDS011;15448;51.956;7.670;2022-08-04T02:59:52;16.57;;;15.53;;
28160;SDS011;15448;51.956;7.670;2022-08-04T03:02:44;15.83;;;14.90;;
28160;SDS011;15448;51.956;7.670;2022-08-04T03:05:16;16.53;;;15.53;;
28160;SDS011;15448;51.956;7.670;2022-08-04T03:08:05;17.90;;;16.17;;
28160;SDS011;15448;51.956;7.670;2022-08-04T03:11:15;18.13;;;16.80;;
28160;SDS011;15448;51.956;7.670;2022-08-04T03:14:10;17.33;;;16.13;;
28160;SDS011;15448;51.956;7.670;2022-08-04T03:22:54;18.10;;;16.80;;
28160;SDS011;15448;51.956;7.670;2022-08-04T03:46:50;18.50;;;16.43;;
28160;SDS011;15448;51.956;7.670;2022-08-04T03:52:39;18.03;;;16.67;;
28160;SDS011;15448;51.956;7.670;2022-08-04T04:04:13;18.83;;;17.30;;
28160;SDS011;15448;51.956;7.670;2022-08-04T04:15:57;18.03;;;16.63;;
28160;SDS011;15448;51.956;7.670;2022-08-04T04:18:50;20.17;;;18.27;;
28160;SDS011;15448;51.956;7.670;2022-08-04T04:23:56;19.07;;;17.37;;
28160;SDS011;15448;51.956;7.670;2022-08-04T04:40:19;18.60;;;17.47;;
28160;SDS011;15448;51.956;7.670;2022-08-04T04:45:33;19.33;;;18.17;;
28160;SDS011;15448;51.956;7.670;2022-08-04T04:48:07;16.90;;;15.90;;
28160;SDS011;15448;51.956;7.670;2022-08-04T04:56:15;21.23;;;18.40;;
28160;SDS011;15448;51.956;7.670;2022-08-04T04:59:05;19.60;;;16.73;;
28160;SDS011;15448;51.956;7.670;2022-08-04T05:01:51;17.20;;;16.20;;
28160;SDS011;15448;51.956;7.670;2022-08-04T05:05:10;19.07;;;17.10;;
28160;SDS011;15448;51.956;7.670;2022-08-04T05:07:37;18.20;;;16.80;;
28160;SDS011;15448;51.956;7.670;2022-08-04T05:16:53;17.53;;;16.53;;
28160;SDS011;15448;51.956;7.670;2022-08-04T05:19:22;17.73;;;16.30;;
28160;SDS011;15448;51.956;7.670;2022-08-04T05:21:59;18.37;;;16.43;;
28160;SDS011;15448;51.956;7.670;2022-08-04T05:24:36;31.37;;;17.23;;
28160;SDS011;15448;51.956;7.670;2022-08-04T05:27:04;18.43;;;16.80;;
28160;SDS011;15448;51.956;7.670;2022-08-04T05:29:41;18.50;;;16.70;;
28160;SDS011;15448;51.956;7.670;2022-08-04T05:32:14;18.87;;;17.03;;
28160;SDS011;15448;51.956;7.670;2022-08-04T05:34:42;17.40;;;16.30;;
28160;SDS011;15448;51.956;7.670;2022-08-04T05:37:17;17.80;;;16.63;;
28160;SDS011;15448;51.956;7.670;2022-08-04T05:39:45;17.47;;;16.27;;
28160;SDS011;15448;51.956;7.670;2022-08-04T05:42:17;17.23;;;16.13;;
28160;SDS011;15448;51.956;7.670;2022-08-04T05:44:44;17.00;;;16.00;;
28160;SDS011;15448;51.956;7.670;2022-08-04T05:47:10;16.90;;;15.83;;
28160;SDS011;15448;51.956;7.670;2022-08-04T05:49:37;18.20;;;16.70;;
28160;SDS011;15448;51.956;7.670;2022-08-04T05:52:05;18.27;;;16.47;;
28160;SDS011;15448;51.956;7.670;2022-08-04T05:54:32;17.80;;;16.20;;
28160;SDS011;15448;51.956;7.670;2022-08-04T05:56:59;19.97;;;16.40;;
28160;SDS011;15448;51.956;7.670;2022-08-04T05:59:28;19.23;;;17.40;;
28160;SDS011;15448;51.956;7.670;2022-08-04T06:01:56;17.70;;;16.57;;
28160;SDS011;15448;51.956;7.670;2022-08-04T06:04:27;18.90;;;17.10;;
28160;SDS011;15448;51.956;7.670;2022-08-04T06:06:59;17.70;;;16.50;;
28160;SDS011;15448;51.956;7.670;2022-08-04T06:09:25;23.30;;;16.97;;
28160;SDS011;15448;51.956;7.670;2022-08-04T06:11:51;18.50;;;16.60;;
28160;SDS011;15448;51.956;7.670;2022-08-04T06:14:20;22.50;;;17.20;;
28160;SDS011;15448;51.956;7.670;2022-08-04T06:16:48;17.67;;;16.00;;
28160;SDS011;15448;51.956;7.670;2022-08-04T06:19:16;16.70;;;15.60;;
28160;SDS011;15448;51.956;7.670;2022-08-04T06:21:43;18.20;;;16.47;;
28160;SDS011;15448;51.956;7.670;2022-08-04T06:24:14;18.07;;;16.53;;
28160;SDS011;15448;51.956;7.670;2022-08-04T06:26:46;19.13;;;17.57;;
28160;SDS011;15448;51.956;7.670;2022-08-04T06:29:13;17.50;;;16.30;;
28160;SDS011;15448;51.956;7.670;2022-08-04T06:31:54;18.57;;;16.70;;
28160;SDS011;15448;51.956;7.670;2022-08-04T06:34:23;16.33;;;15.43;;
28160;SDS011;15448;51.956;7.670;2022-08-04T06:36:50;16.93;;;15.40;;
28160;SDS011;15448;51.956;7.670;2022-08-04T06:39:17;16.23;;;15.17;;
28160;SDS011;15448;51.956;7.670;2022-08-04T06:41:44;19.87;;;17.10;;
28160;SDS011;15448;51.956;7.670;2022-08-04T06:44:10;17.00;;;15.63;;
28160;SDS011;15448;51.956;7.670;2022-08-04T06:46:39;15.80;;;14.80;;
28160;SDS011;15448;51.956;7.670;2022-08-04T06:49:05;18.20;;;15.30;;
28160;SDS011;15448;51.956;7.670;2022-08-04T06:51:32;16.97;;;15.50;;
28160;SDS011;15448;51.956;7.670;2022-08-04T06:54:00;17.27;;;16.17;;
28160;SDS011;15448;51.956;7.670;2022-08-04T06:56:26;17.70;;;16.47;;
28160;SDS011;15448;51.956;7.670;2022-08-04T06:58:54;17.67;;;16.17;;
28160;SDS011;15448;51.956;7.670;2022-08-04T07:01:21;17.80;;;16.50;;
28160;SDS011;15448;51.956;7.670;2022-08-04T07:03:48;18.10;;;16.77;;
28160;SDS011;15448;51.956;7.670;2022-08-04T07:06:14;16.80;;;15.70;;
28160;SDS011;15448;51.956;7.670;2022-08-04T07:08:40;22.03;;;15.77;;
28160;SDS011;15448;51.956;7.670;2022-08-04T07:11:06;16.73;;;15.60;;
28160;SDS011;15448;51.956;7.670;2022-08-04T07:13:32;17.23;;;15.83;;
28160;SDS011;15448;51.956;7.670;2022-08-04T07:15:59;19.27;;;16.80;;
28160;SDS011;15448;51.956;7.670;2022-08-04T07:18:26;20.87;;;15.63;;
28160;SDS011;15448;51.956;7.670;2022-08-04T07:20:51;16.10;;;14.80;;
28160;SDS011;15448;51.956;7.670;2022-08-04T07:23:22;15.90;;;14.60;;
28160;SDS011;15448;51.956;7.670;2022-08-04T07:25:49;32.23;;;17.57;;
28160;SDS011;15448;51.956;7.670;2022-08-04T07:28:19;16.97;;;15.50;;
28160;SDS011;15448;51.956;7.670;2022-08-04T07:30:46;16.77;;;15.87;;
28160;SDS011;15448;51.956;7.670;2022-08-04T07:33:13;16.07;;;15.07;;
28160;SDS011;15448;51.956;7.670;2022-08-04T07:35:43;15.93;;;14.80;;
28160;SDS011;15448;51.956;7.670;2022-08-04T07:38:13;16.10;;;15.00;;
28160;SDS011;15448;51.956;7.670;2022-08-04T07:40:39;16.20;;;15.20;;
28160;SDS011;15448;51.956;7.670;2022-08-04T07:43:05;16.00;;;14.80;;
28160;SDS011;15448;51.956;7.670;2022-08-04T07:45:31;15.70;;;14.70;;
28160;SDS011;15448;51.956;7.670;2022-08-04T07:47:57;16.50;;;14.93;;
28160;SDS011;15448;51.956;7.670;2022-08-04T07:50:23;16.73;;;15.03;;
28160;SDS011;15448;51.956;7.670;2022-08-04T07:52:50;15.30;;;14.50;;
28160;SDS011;15448;51.956;7.670;2022-08-04T07:55:16;15.73;;;14.83;;
28160;SDS011;15448;51.956;7.670;2022-08-04T07:57:43;16.87;;;15.67;;
28160;SDS011;15448;51.956;7.670;2022-08-04T08:00:09;17.30;;;15.60;;
28160;SDS011;15448;51.956;7.670;2022-08-04T08:02:36;16.63;;;15.00;;
28160;SDS011;15448;51.956;7.670;2022-08-04T08:05:03;16.37;;;15.33;;
28160;SDS011;15448;51.956;7.670;2022-08-04T08:07:29;19.50;;;17.90;;
28160;SDS011;15448;51.956;7.670;2022-08-04T08:09:54;16.87;;;15.77;;
28160;SDS011;15448;51.956;7.670;2022-08-04T08:12:20;16.00;;;15.00;;
28160;SDS011;15448;51.956;7.670;2022-08-04T08:14:46;15.33;;;14.43;;
28160;SDS011;15448;51.956;7.670;2022-08-04T08:17:12;17.17;;;16.10;;
28160;SDS011;15448;51.956;7.670;2022-08-04T08:19:38;17.30;;;16.10;;
28160;SDS011;15448;51.956;7.670;2022-08-04T08:22:03;15.30;;;14.60;;
28160;SDS011;15448;51.956;7.670;2022-08-04T08:24:30;15.70;;;14.90;;
28160;SDS011;15448;51.956;7.670;2022-08-04T08:26:59;16.00;;;15.10;;
28160;SDS011;15448;51.956;7.670;2022-08-04T08:29:28;22.47;;;15.70;;
28160;SDS011;15448;51.956;7.670;2022-08-04T08:31:54;15.93;;;15.23;;
28160;SDS011;15448;51.956;7.670;2022-08-04T08:34:20;16.60;;;15.07;;
28160;SDS011;15448;51.956;7.670;2022-08-04T08:36:47;16.30;;;15.33;;
28160;SDS011;15448;51.956;7.670;2022-08-04T08:39:24;16.30;;;15.50;;
28160;SDS011;15448;51.956;7.670;2022-08-04T08:42:00;16.13;;;15.30;;
28160;SDS011;15448;51.956;7.670;2022-08-04T08:44:47;16.23;;;15.47;;
28160;SDS011;15448;51.956;7.670;2022-08-04T08:53:05;17.27;;;16.07;;
28160;SDS011;15448;51.956;7.670;2022-08-04T09:09:27;16.67;;;15.30;;
28160;SDS011;15448;51.956;7.670;2022-08-04T09:18:08;16.53;;;15.63;;
28160;SDS011;15448;51.956;7.670;2022-08-04T09:20:46;15.33;;;14.60;;
28160;SDS011;15448;51.956;7.670;2022-08-04T09:23:27;16.37;;;15.10;;
28160;SDS011;15448;51.956;7.670;2022-08-04T09:26:05;15.83;;;15.03;;
28160;SDS011;15448;51.956;7.670;2022-08-04T09:31:43;16.27;;;15.53;;
28160;SDS011;15448;51.956;7.670;2022-08-04T09:34:38;16.40;;;15.60;;
28160;SDS011;15448;51.956;7.670;2022-08-04T09:42:53;17.43;;;16.20;;
28160;SDS011;15448;51.956;7.670;2022-08-04T09:45:28;18.23;;;16.70;;
28160;SDS011;15448;51.956;7.670;2022-08-04T09:48:11;17.50;;;15.30;;
28160;SDS011;15448;51.956;7.670;2022-08-04T09:50:52;15.73;;;14.60;;
28160;SDS011;15448;51.956;7.670;2022-08-04T09:53:45;15.60;;;14.33;;
28160;SDS011;15448;51.956;7.670;2022-08-04T09:56:22;14.83;;;14.03;;
28160;SDS011;15448;51.956;7.670;2022-08-04T09:59:03;16.67;;;15.70;;
28160;SDS011;15448;51.956;7.670;2022-08-04T10:01:42;15.03;;;14.30;;
28160;SDS011;15448;51.956;7.670;2022-08-04T10:04:11;15.40;;;14.50;;
28160;SDS011;15448;51.956;7.670;2022-08-04T10:06:44;16.13;;;15.40;;
28160;SDS011;15448;51.956;7.670;2022-08-04T10:15:37;18.27;;;17.17;;
28160;SDS011;15448;51.956;7.670;2022-08-04T10:18:14;16.40;;;15.70;;
28160;SDS011;15448;51.956;7.670;2022-08-04T10:21:02;15.70;;;14.90;;
28160;SDS011;15448;51.956;7.670;2022-08-04T10:23:37;17.53;;;15.73;;
28160;SDS011;15448;51.956;7.670;2022-08-04T10:29:01;17.20;;;15.63;;
28160;SDS011;15448;51.956;7.670;2022-08-04T10:31:35;16.90;;;15.40;;
28160;SDS011;15448;51.956;7.670;2022-08-04T10:34:11;17.13;;;15.77;;
28160;SDS011;15448;51.956;7.670;2022-08-04T10:36:52;15.77;;;14.77;;
28160;SDS011;15448;51.956;7.670;2022-08-04T10:39:24;16.10;;;15.17;;
28160;SDS011;15448;51.956;7.670;2022-08-04T10:42:00;15.30;;;14.50;;
28160;SDS011;15448;51.956;7.670;2022-08-04T10:44:40;16.40;;;15.60;;
28160;SDS011;15448;51.956;7.670;2022-08-04T10:47:17;16.40;;;14.80;;
28160;SDS011;15448;51.956;7.670;2022-08-04T10:49:47;15.90;;;14.80;;
28160;SDS011;15448;51.956;7.670;2022-08-04T10:55:15;16.63;;;15.83;;
28160;SDS011;15448;51.956;7.670;2022-08-04T11:00:20;20.80;;;15.30;;
28160;SDS011;15448;51.956;7.670;2022-08-04T11:03:00;17.40;;;15.37;;
28160;SDS011;15448;51.956;7.670;2022-08-04T11:05:52;16.90;;;15.70;;
28160;SDS011;15448;51.956;7.670;2022-08-04T11:08:21;15.63;;;14.87;;
28160;SDS011;15448;51.956;7.670;2022-08-04T11:11:00;17.60;;;16.07;;
28160;SDS011;15448;51.956;7.670;2022-08-04T11:16:25;17.93;;;16.90;;
28160;SDS011;15448;51.956;7.670;2022-08-04T11:19:07;18.77;;;17.47;;
28160;SDS011;15448;51.956;7.670;2022-08-04T11:21:54;16.87;;;15.20;;
28160;SDS011;15448;51.956;7.670;2022-08-04T11:24:26;17.10;;;15.77;;
28160;SDS011;15448;51.956;7.670;2022-08-04T11:27:08;17.57;;;16.27;;
28160;SDS011;15448;51.956;7.670;2022-08-04T11:30:08;17.47;;;15.97;;
28160;SDS011;15448;51.956;7.670;2022-08-04T11:35:26;16.40;;;15.40;;
28160;SDS011;15448;51.956;7.670;2022-08-04T11:38:08;15.93;;;15.13;;
28160;SDS011;15448;51.956;7.670;2022-08-04T11:40:40;16.37;;;15.17;;
28160;SDS011;15448;51.956;7.670;2022-08-04T11:43:18;17.70;;;16.70;;
28160;SDS011;15448;51.956;7.670;2022-08-04T11:45:52;18.00;;;16.30;;
28160;SDS011;15448;51.956;7.670;2022-08-04T11:48:55;16.70;;;15.70;;
28160;SDS011;15448;51.956;7.670;2022-08-04T11:51:20;17.23;;;15.77;;
28160;SDS011;15448;51.956;7.670;2022-08-04T11:53:46;16.20;;;15.23;;
28160;SDS011;15448;51.956;7.670;2022-08-04T11:56:14;17.10;;;15.03;;
28160;SDS011;15448;51.956;7.670;2022-08-04T11:58:40;16.73;;;15.47;;
28160;SDS011;15448;51.956;7.670;2022-08-04T12:03:59;16.63;;;15.93;;
28160;SDS011;15448;51.956;7.670;2022-08-04T12:06:46;24.87;;;16.77;;
28160;SDS011;15448;51.956;7.670;2022-08-04T12:09:19;17.13;;;15.60;;
28160;SDS011;15448;51.956;7.670;2022-08-04T12:17:59;16.10;;;15.10;;
28160;SDS011;15448;51.956;7.670;2022-08-04T12:20:29;16.37;;;15.00;;
28160;SDS011;15448;51.956;7.670;2022-08-04T12:23:03;18.07;;;16.10;;
28160;SDS011;15448;51.956;7.670;2022-08-04T12:25:37;17.00;;;16.20;;
28160;SDS011;15448;51.956;7.670;2022-08-04T12:28:11;16.80;;;15.90;;
28160;SDS011;15448;51.956;7.670;2022-08-04T12:30:49;17.47;;;16.00;;
28160;SDS011;15448;51.956;7.670;2022-08-04T12:33:37;16.77;;;15.87;;
28160;SDS011;15448;51.956;7.670;2022-08-04T12:36:11;17.40;;;16.03;;
28160;SDS011;15448;51.956;7.670;2022-08-04T12:38:58;18.67;;;16.23;;
28160;SDS011;15448;51.956;7.670;2022-08-04T12:41:35;16.53;;;15.80;;
28160;SDS011;15448;51.956;7.670;2022-08-04T12:44:08;16.03;;;15.03;;
28160;SDS011;15448;51.956;7.670;2022-08-04T12:46:36;16.33;;;15.10;;
28160;SDS011;15448;51.956;7.670;2022-08-04T12:49:02;16.57;;;15.47;;
28160;SDS011;15448;51.956;7.670;2022-08-04T12:51:35;16.83;;;15.93;;
28160;SDS011;15448;51.956;7.670;2022-08-04T12:54:03;19.43;;;18.00;;
28160;SDS011;15448;51.956;7.670;2022-08-04T12:56:30;19.40;;;17.70;;
28160;SDS011;15448;51.956;7.670;2022-08-04T12:59:01;19.50;;;17.60;;
28160;SDS011;15448;51.956;7.670;2022-08-04T13:01:32;25.93;;;17.40;;
28160;SDS011;15448;51.956;7.670;2022-08-04T13:04:00;18.10;;;16.90;;
28160;SDS011;15448;51.956;7.670;2022-08-04T13:06:34;23.37;;;16.67;;
28160;SDS011;15448;51.956;7.670;2022-08-04T13:09:02;19.53;;;16.63;;
28160;SDS011;15448;51.956;7.670;2022-08-04T13:11:32;30.55;;;16.00;;
28160;SDS011;15448;51.956;7.670;2022-08-04T13:14:04;16.70;;;15.17;;
28160;SDS011;15448;51.956;7.670;2022-08-04T13:16:32;16.40;;;15.50;;
28160;SDS011;15448;51.956;7.670;2022-08-04T13:18:58;17.33;;;15.80;;
28160;SDS011;15448;51.956;7.670;2022-08-04T13:21:25;17.97;;;16.70;;
28160;SDS011;15448;51.956;7.670;2022-08-04T13:24:12;17.33;;;16.07;;
28160;SDS011;15448;51.956;7.670;2022-08-04T13:26:46;17.37;;;15.93;;
28160;SDS011;15448;51.956;7.670;2022-08-04T13:29:14;16.90;;;15.80;;
28160;SDS011;15448;51.956;7.670;2022-08-04T13:31:42;21.27;;;16.27;;
28160;SDS011;15448;51.956;7.670;2022-08-04T13:34:09;18.10;;;16.50;;
28160;SDS011;15448;51.956;7.670;2022-08-04T13:36:36;19.20;;;17.80;;
28160;SDS011;15448;51.956;7.670;2022-08-04T13:39:07;18.77;;;17.13;;
28160;SDS011;15448;51.956;7.670;2022-08-04T13:41:44;18.17;;;16.23;;
28160;SDS011;15448;51.956;7.670;2022-08-04T13:44:11;17.30;;;15.83;;
28160;SDS011;15448;51.956;7.670;2022-08-04T13:46:44;17.47;;;16.27;;
28160;SDS011;15448;51.956;7.670;2022-08-04T13:49:14;29.27;;;17.23;;
28160;SDS011;15448;51.956;7.670;2022-08-04T13:51:46;18.80;;;16.57;;
28160;SDS011;15448;51.956;7.670;2022-08-04T13:54:14;20.00;;;17.90;;
28160;SDS011;15448;51.956;7.670;2022-08-04T13:56:47;18.13;;;16.83;;
28160;SDS011;15448;51.956;7.670;2022-08-04T13:59:17;17.80;;;16.63;;
28160;SDS011;15448;51.956;7.670;2022-08-04T14:01:54;18.77;;;17.30;;
28160;SDS011;15448;51.956;7.670;2022-08-04T14:04:28;17.10;;;15.70;;
28160;SDS011;15448;51.956;7.670;2022-08-04T14:07:02;18.77;;;16.50;;
28160;SDS011;15448;51.956;7.670;2022-08-04T14:09:36;17.23;;;16.20;;
28160;SDS011;15448;51.956;7.670;2022-08-04T14:14:32;16.00;;;15.20;;
28160;SDS011;15448;51.956;7.670;2022-08-04T14:17:06;16.30;;;15.30;;
28160;SDS011;15448;51.956;7.670;2022-08-04T14:22:26;17.70;;;16.20;;
28160;SDS011;15448;51.956;7.670;2022-08-04T14:30:19;17.63;;;16.20;;
28160;SDS011;15448;51.956;7.670;2022-08-04T14:32:52;15.20;;;14.40;;
28160;SDS011;15448;51.956;7.670;2022-08-04T14:35:35;15.27;;;14.33;;
28160;SDS011;15448;51.956;7.670;2022-08-04T14:38:06;20.23;;;14.60;;
28160;SDS011;15448;51.956;7.670;2022-08-04T14:40:34;15.70;;;14.60;;
28160;SDS011;15448;51.956;7.670;2022-08-04T14:43:01;16.10;;;15.23;;
28160;SDS011;15448;51.956;7.670;2022-08-04T14:45:41;16.73;;;15.73;;
28160;SDS011;15448;51.956;7.670;2022-08-04T14:48:11;16.77;;;15.70;;
28160;SDS011;15448;51.956;7.670;2022-08-04T14:50:42;16.10;;;15.00;;
28160;SDS011;15448;51.956;7.670;2022-08-04T14:53:19;15.53;;;14.53;;
28160;SDS011;15448;51.956;7.670;2022-08-04T14:55:46;16.50;;;15.17;;
28160;SDS011;15448;51.956;7.670;2022-08-04T14:58:24;37.67;;;15.83;;
28160;SDS011;15448;51.956;7.670;2022-08-04T15:00:54;16.43;;;14.90;;
28160;SDS011;15448;51.956;7.670;2022-08-04T15:03:22;15.50;;;14.47;;
28160;SDS011;15448;51.956;7.670;2022-08-04T15:05:48;15.57;;;14.73;;
28160;SDS011;15448;51.956;7.670;2022-08-04T15:08:15;14.50;;;13.90;;
28160;SDS011;15448;51.956;7.670;2022-08-04T15:10:41;16.27;;;14.80;;
28160;SDS011;15448;51.956;7.670;2022-08-04T15:13:08;15.67;;;14.87;;
28160;SDS011;15448;51.956;7.670;2022-08-04T15:15:37;15.10;;;14.20;;
28160;SDS011;15448;51.956;7.670;2022-08-04T15:18:03;15.73;;;14.80;;
28160;SDS011;15448;51.956;7.670;2022-08-04T15:20:35;15.60;;;14.07;;
28160;SDS011;15448;51.956;7.670;2022-08-04T15:23:02;15.63;;;14.77;;
28160;SDS011;15448;51.956;7.670;2022-08-04T15:25:36;15.37;;;14.57;;
28160;SDS011;15448;51.956;7.670;2022-08-04T15:28:10;16.50;;;15.30;;
28160;SDS011;15448;51.956;7.670;2022-08-04T15:30:47;18.80;;;17.20;;
28160;SDS011;15448;51.956;7.670;2022-08-04T15:33:14;16.20;;;15.43;;
28160;SDS011;15448;51.956;7.670;2022-08-04T15:35:45;16.50;;;15.07;;
28160;SDS011;15448;51.956;7.670;2022-08-04T15:38:15;18.60;;;15.63;;
28160;SDS011;15448;51.956;7.670;2022-08-04T15:41:02;15.13;;;14.20;;
28160;SDS011;15448;51.956;7.670;2022-08-04T15:44:02;15.83;;;14.10;;
28160;SDS011;15448;51.956;7.670;2022-08-04T15:49:33;15.50;;;14.40;;
28160;SDS011;15448;51.956;7.670;2022-08-04T15:52:03;15.13;;;14.23;;
28160;SDS011;15448;51.956;7.670;2022-08-04T15:54:30;14.47;;;13.50;;
28160;SDS011;15448;51.956;7.670;2022-08-04T15:56:56;15.47;;;14.47;;
28160;SDS011;15448;51.956;7.670;2022-08-04T16:07:55;15.47;;;14.63;;
28160;SDS011;15448;51.956;7.670;2022-08-04T16:12:57;14.20;;;13.50;;
28160;SDS011;15448;51.956;7.670;2022-08-04T16:15:47;14.73;;;13.57;;
28160;SDS011;15448;51.956;7.670;2022-08-04T16:18:20;13.67;;;12.90;;
28160;SDS011;15448;51.956;7.670;2022-08-04T16:20:46;14.33;;;12.80;;
28160;SDS011;15448;51.956;7.670;2022-08-04T16:23:15;13.70;;;12.70;;
28160;SDS011;15448;51.956;7.670;2022-08-04T16:25:52;13.43;;;12.47;;
28160;SDS011;15448;51.956;7.670;2022-08-04T16:28:37;13.50;;;12.60;;
28160;SDS011;15448;51.956;7.670;2022-08-04T16:31:08;14.10;;;13.10;;
28160;SDS011;15448;51.956;7.670;2022-08-04T16:33:35;14.77;;;13.40;;
28160;SDS011;15448;51.956;7.670;2022-08-04T16:36:02;14.20;;;13.10;;
28160;SDS011;15448;51.956;7.670;2022-08-04T16:38:29;14.73;;;13.83;;
28160;SDS011;15448;51.956;7.670;2022-08-04T16:40:56;14.70;;;13.50;;
28160;SDS011;15448;51.956;7.670;2022-08-04T16:43:26;14.53;;;13.63;;
28160;SDS011;15448;51.956;7.670;2022-08-04T16:46:02;14.60;;;13.77;;
28160;SDS011;15448;51.956;7.670;2022-08-04T16:50:59;14.57;;;13.97;;
28160;SDS011;15448;51.956;7.670;2022-08-04T16:53:26;17.27;;;13.80;;
28160;SDS011;15448;51.956;7.670;2022-08-04T16:55:57;15.80;;;14.60;;
28160;SDS011;15448;51.956;7.670;2022-08-04T16:58:23;14.73;;;13.83;;
28160;SDS011;15448;51.956;7.670;2022-08-04T17:00:54;15.63;;;14.80;;
28160;SDS011;15448;51.956;7.670;2022-08-04T17:03:20;15.07;;;13.90;;
28160;SDS011;15448;51.956;7.670;2022-08-04T17:05:46;15.03;;;14.00;;
28160;SDS011;15448;51.956;7.670;2022-08-04T17:08:12;14.93;;;14.13;;
28160;SDS011;15448;51.956;7.670;2022-08-04T17:10:39;15.27;;;14.30;;
28160;SDS011;15448;51.956;7.670;2022-08-04T17:13:28;14.57;;;13.73;;
28160;SDS011;15448;51.956;7.670;2022-08-04T17:16:00;13.90;;;13.27;;
28160;SDS011;15448;51.956;7.670;2022-08-04T17:18:35;13.93;;;13.33;;
28160;SDS011;15448;51.956;7.670;2022-08-04T17:21:06;14.60;;;13.80;;
28160;SDS011;15448;51.956;7.670;2022-08-04T17:23:37;15.13;;;13.83;;
28160;SDS011;15448;51.956;7.670;2022-08-04T17:26:06;14.37;;;13.57;;
28160;SDS011;15448;51.956;7.670;2022-08-04T17:28:33;15.80;;;15.00;;
28160;SDS011;15448;51.956;7.670;2022-08-04T17:31:00;14.63;;;13.83;;
28160;SDS011;15448;51.956;7.670;2022-08-04T17:33:29;14.47;;;13.50;;
28160;SDS011;15448;51.956;7.670;2022-08-04T17:35:55;13.90;;;12.97;;
28160;SDS011;15448;51.956;7.670;2022-08-04T17:38:28;13.30;;;12.80;;
28160;SDS011;15448;51.956;7.670;2022-08-04T17:40:56;15.80;;;14.17;;
28160;SDS011;15448;51.956;7.670;2022-08-04T17:44:25;14.27;;;13.57;;
28160;SDS011;15448;51.956;7.670;2022-08-04T17:48:58;14.20;;;13.20;;
28160;SDS011;15448;51.956;7.670;2022-08-04T17:54:11;14.87;;;13.77;;
28160;SDS011;15448;51.956;7.670;2022-08-04T17:56:42;14.70;;;13.90;;
28160;SDS011;15448;51.956;7.670;2022-08-04T17:59:13;14.07;;;13.37;;
28160;SDS011;15448;51.956;7.670;2022-08-04T18:07:17;15.37;;;14.50;;
28160;SDS011;15448;51.956;7.670;2022-08-04T18:14:53;14.90;;;14.10;;
28160;SDS011;15448;51.956;7.670;2022-08-04T18:20:03;14.80;;;14.00;;
28160;SDS011;15448;51.956;7.670;2022-08-04T18:22:29;14.23;;;13.43;;
28160;SDS011;15448;51.956;7.670;2022-08-04T18:24:54;14.27;;;13.30;;
28160;SDS011;15448;51.956;7.670;2022-08-04T18:27:22;14.70;;;13.70;;
28160;SDS011;15448;51.956;7.670;2022-08-04T18:29:52;14.93;;;13.50;;
28160;SDS011;15448;51.956;7.670;2022-08-04T18:32:19;13.50;;;12.80;;
28160;SDS011;15448;51.956;7.670;2022-08-04T18:34:47;13.73;;;13.03;;
28160;SDS011;15448;51.956;7.670;2022-08-04T18:37:13;17.57;;;13.90;;
28160;SDS011;15448;51.956;7.670;2022-08-04T18:39:39;14.73;;;13.60;;
28160;SDS011;15448;51.956;7.670;2022-08-04T18:42:05;13.83;;;12.97;;
28160;SDS011;15448;51.956;7.670;2022-08-04T18:44:31;13.83;;;13.03;;
28160;SDS011;15448;51.956;7.670;2022-08-04T18:46:57;14.50;;;13.47;;
28160;SDS011;15448;51.956;7.670;2022-08-04T18:49:23;13.10;;;12.50;;